sensor_id;sensor_type;location;lat;lon;timestamp;P1;durP1;ratioP1;P2;durP2;ratioP2
16634;SDS011;8431;52.458;9.998;2023-04-15T00:02:14;4.95;;;4.45;;
16634;SDS011;8431;52.458;9.998;2023-04-15T00:04:43;5.30;;;4.80;;
16634;SDS011;8431;52.458;9.998;2023-04-15T00:07:10;4.85;;;4.45;;
16634;SDS011;8431;52.458;9.998;2023-04-15T00:09:38;4.45;;;4.05;;
16634;SDS011;8431;52.458;9.998;2023-04-15T00:12:07;4.60;;;4.15;;
16634;SDS011;8431;52.458;9.998;2023-04-15T00:14:34;6.40;;;4.80;;
16634;SDS011;8431;52.458;9.998;2023-04-15T00:17:01;4.13;;;3.83;;
16634;SDS011;8431;52.458;9.998;2023-04-15T00:19:29;5.15;;;4.45;;
16634;SDS011;8431;52.458;9.998;2023-04-15T00:21:58;5.40;;;4.90;;
16634;SDS011;8431;52.458;9.998;2023-04-15T00:24:25;6.07;;;4.82;;
16634;SDS011;8431;52.458;9.998;2023-04-15T00:26:53;5.05;;;4.60;;
16634;SDS011;8431;52.458;9.998;2023-04-15T00:29:20;5.10;;;4.57;;
16634;SDS011;8431;52.458;9.998;2023-04-15T00:31:47;6.20;;;4.80;;
16634;SDS011;8431;52.458;9.998;2023-04-15T00:34:14;5.07;;;4.68;;
16634;SDS011;8431;52.458;9.998;2023-04-15T00:36:41;6.03;;;5.50;;
16634;SDS011;8431;52.458;9.998;2023-04-15T00:39:10;5.97;;;5.35;;
16634;SDS011;8431;52.458;9.998;2023-04-15T00:41:37;5.95;;;5.45;;
16634;SDS011;8431;52.458;9.998;2023-04-15T00:44:04;6.25;;;5.40;;
16634;SDS011;8431;52.458;9.998;2023-04-15T00:46:32;6.00;;;5.43;;
16634;SDS011;8431;52.458;9.998;2023-04-15T00:49:01;5.97;;;5.47;;
16634;SDS011;8431;52.458;9.998;2023-04-15T00:51:29;6.13;;;5.53;;
16634;SDS011;8431;52.458;9.998;2023-04-15T00:53:57;6.72;;;5.78;;
16634;SDS011;8431;52.458;9.998;2023-04-15T00:56:26;6.10;;;5.57;;
16634;SDS011;8431;52.458;9.998;2023-04-15T00:58:55;6.90;;;5.82;;
16634;SDS011;8431;52.458;9.998;2023-04-15T01:01:22;6.45;;;5.85;;
16634;SDS011;8431;52.458;9.998;2023-04-15T01:03:51;6.80;;;6.18;;
16634;SDS011;8431;52.458;9.998;2023-04-15T01:06:18;6.95;;;6.25;;
16634;SDS011;8431;52.458;9.998;2023-04-15T01:08:45;6.72;;;6.13;;
16634;SDS011;8431;52.458;9.998;2023-04-15T01:11:13;6.80;;;6.10;;
16634;SDS011;8431;52.458;9.998;2023-04-15T01:13:42;6.63;;;6.03;;
16634;SDS011;8431;52.458;9.998;2023-04-15T01:16:09;8.20;;;7.40;;
16634;SDS011;8431;52.458;9.998;2023-04-15T01:18:37;9.15;;;7.40;;
16634;SDS011;8431;52.458;9.998;2023-04-15T01:21:04;8.68;;;7.75;;
16634;SDS011;8431;52.458;9.998;2023-04-15T01:23:32;9.02;;;7.57;;
16634;SDS011;8431;52.458;9.998;2023-04-15T01:26:04;8.57;;;7.68;;
16634;SDS011;8431;52.458;9.998;2023-04-15T01:28:32;10.10;;;8.18;;
16634;SDS011;8431;52.458;9.998;2023-04-15T01:31:05;9.65;;;8.55;;
16634;SDS011;8431;52.458;9.998;2023-04-15T01:33:33;11.18;;;7.72;;
16634;SDS011;8431;52.458;9.998;2023-04-15T01:36:00;8.93;;;8.00;;
16634;SDS011;8431;52.458;9.998;2023-04-15T01:38:27;9.18;;;8.15;;
16634;SDS011;8431;52.458;9.998;2023-04-15T01:40:56;9.45;;;8.02;;
16634;SDS011;8431;52.458;9.998;2023-04-15T01:43:24;9.68;;;8.60;;
16634;SDS011;8431;52.458;9.998;2023-04-15T01:45:52;9.57;;;8.02;;
16634;SDS011;8431;52.458;9.998;2023-04-15T01:48:19;10.15;;;9.15;;
16634;SDS011;8431;52.458;9.998;2023-04-15T01:50:47;12.00;;;9.07;;
16634;SDS011;8431;52.458;9.998;2023-04-15T01:53:14;10.10;;;8.70;;
16634;SDS011;8431;52.458;9.998;2023-04-15T01:55:41;10.93;;;8.70;;
16634;SDS011;8431;52.458;9.998;2023-04-15T01:58:08;11.15;;;9.50;;
16634;SDS011;8431;52.458;9.998;2023-04-15T02:00:37;12.13;;;9.48;;
16634;SDS011;8431;52.458;9.998;2023-04-15T02:03:04;11.82;;;9.32;;
16634;SDS011;8431;52.458;9.998;2023-04-15T02:05:31;11.75;;;9.90;;
16634;SDS011;8431;52.458;9.998;2023-04-15T02:07:58;12.93;;;9.90;;
16634;SDS011;8431;52.458;9.998;2023-04-15T02:10:25;12.20;;;10.23;;
16634;SDS011;8431;52.458;9.998;2023-04-15T02:12:52;15.10;;;10.90;;
16634;SDS011;8431;52.458;9.998;2023-04-15T02:15:19;10.57;;;9.48;;
16634;SDS011;8431;52.458;9.998;2023-04-15T02:17:48;12.95;;;10.38;;
16634;SDS011;8431;52.458;9.998;2023-04-15T02:20:18;11.43;;;10.13;;
16634;SDS011;8431;52.458;9.998;2023-04-15T02:22:46;12.10;;;10.48;;
16634;SDS011;8431;52.458;9.998;2023-04-15T02:25:14;12.88;;;10.40;;
16634;SDS011;8431;52.458;9.998;2023-04-15T02:27:42;11.57;;;9.95;;
16634;SDS011;8431;52.458;9.998;2023-04-15T02:30:09;12.18;;;10.10;;
16634;SDS011;8431;52.458;9.998;2023-04-15T02:32:37;15.23;;;11.07;;
16634;SDS011;8431;52.458;9.998;2023-04-15T02:35:06;13.63;;;10.65;;
16634;SDS011;8431;52.458;9.998;2023-04-15T02:37:34;13.38;;;10.43;;
16634;SDS011;8431;52.458;9.998;2023-04-15T02:40:06;15.98;;;11.50;;
16634;SDS011;8431;52.458;9.998;2023-04-15T02:42:34;15.52;;;11.15;;
16634;SDS011;8431;52.458;9.998;2023-04-15T02:45:01;11.32;;;9.82;;
16634;SDS011;8431;52.458;9.998;2023-04-15T02:47:29;15.40;;;11.30;;
16634;SDS011;8431;52.458;9.998;2023-04-15T02:49:56;13.52;;;10.27;;
16634;SDS011;8431;52.458;9.998;2023-04-15T02:52:29;14.70;;;11.23;;
16634;SDS011;8431;52.458;9.998;2023-04-15T02:54:58;13.13;;;10.95;;
16634;SDS011;8431;52.458;9.998;2023-04-15T02:57:42;15.00;;;11.23;;
16634;SDS011;8431;52.458;9.998;2023-04-15T03:00:09;15.90;;;11.80;;
16634;SDS011;8431;52.458;9.998;2023-04-15T03:02:37;13.75;;;10.95;;
16634;SDS011;8431;52.458;9.998;2023-04-15T03:05:06;13.63;;;11.30;;
16634;SDS011;8431;52.458;9.998;2023-04-15T03:07:38;14.52;;;10.77;;
16634;SDS011;8431;52.458;9.998;2023-04-15T03:10:06;13.35;;;10.93;;
16634;SDS011;8431;52.458;9.998;2023-04-15T03:12:36;13.85;;;11.35;;
16634;SDS011;8431;52.458;9.998;2023-04-15T03:15:04;14.23;;;11.68;;
16634;SDS011;8431;52.458;9.998;2023-04-15T03:17:32;13.88;;;11.80;;
16634;SDS011;8431;52.458;9.998;2023-04-15T03:20:00;14.80;;;12.07;;
16634;SDS011;8431;52.458;9.998;2023-04-15T03:22:27;14.43;;;11.32;;
16634;SDS011;8431;52.458;9.998;2023-04-15T03:24:55;15.43;;;12.30;;
16634;SDS011;8431;52.458;9.998;2023-04-15T03:27:23;14.88;;;12.25;;
16634;SDS011;8431;52.458;9.998;2023-04-15T03:29:50;15.88;;;13.23;;
16634;SDS011;8431;52.458;9.998;2023-04-15T03:32:17;20.65;;;13.70;;
16634;SDS011;8431;52.458;9.998;2023-04-15T03:34:44;16.02;;;13.95;;
16634;SDS011;8431;52.458;9.998;2023-04-15T03:37:11;19.25;;;14.57;;
16634;SDS011;8431;52.458;9.998;2023-04-15T03:39:38;17.33;;;13.48;;
16634;SDS011;8431;52.458;9.998;2023-04-15T03:42:07;19.55;;;14.35;;
16634;SDS011;8431;52.458;9.998;2023-04-15T03:44:34;19.80;;;14.55;;
16634;SDS011;8431;52.458;9.998;2023-04-15T03:47:01;17.33;;;13.73;;
16634;SDS011;8431;52.458;9.998;2023-04-15T03:49:28;20.38;;;15.05;;
16634;SDS011;8431;52.458;9.998;2023-04-15T03:51:55;18.88;;;14.88;;
16634;SDS011;8431;52.458;9.998;2023-04-15T03:54:22;20.50;;;15.68;;
16634;SDS011;8431;52.458;9.998;2023-04-15T03:56:49;20.90;;;14.32;;
16634;SDS011;8431;52.458;9.998;2023-04-15T03:59:17;19.17;;;15.32;;
16634;SDS011;8431;52.458;9.998;2023-04-15T04:01:44;18.77;;;14.73;;
16634;SDS011;8431;52.458;9.998;2023-04-15T04:04:11;21.30;;;15.73;;
16634;SDS011;8431;52.458;9.998;2023-04-15T04:06:38;24.30;;;16.20;;
16634;SDS011;8431;52.458;9.998;2023-04-15T04:09:05;22.52;;;17.02;;
16634;SDS011;8431;52.458;9.998;2023-04-15T04:11:32;23.50;;;17.17;;
16634;SDS011;8431;52.458;9.998;2023-04-15T04:13:59;26.38;;;18.15;;
16634;SDS011;8431;52.458;9.998;2023-04-15T04:16:28;27.77;;;19.27;;
16634;SDS011;8431;52.458;9.998;2023-04-15T04:18:55;26.90;;;18.17;;
16634;SDS011;8431;52.458;9.998;2023-04-15T04:21:22;27.88;;;18.88;;
16634;SDS011;8431;52.458;9.998;2023-04-15T04:23:49;28.05;;;19.27;;
16634;SDS011;8431;52.458;9.998;2023-04-15T04:26:16;27.65;;;19.63;;
16634;SDS011;8431;52.458;9.998;2023-04-15T04:28:43;26.65;;;18.88;;
16634;SDS011;8431;52.458;9.998;2023-04-15T04:31:10;28.35;;;18.23;;
16634;SDS011;8431;52.458;9.998;2023-04-15T04:33:39;31.85;;;19.52;;
16634;SDS011;8431;52.458;9.998;2023-04-15T04:36:06;31.77;;;19.40;;
16634;SDS011;8431;52.458;9.998;2023-04-15T04:38:33;28.90;;;19.58;;
16634;SDS011;8431;52.458;9.998;2023-04-15T04:41:00;31.77;;;20.70;;
16634;SDS011;8431;52.458;9.998;2023-04-15T04:43:27;32.33;;;20.92;;
16634;SDS011;8431;52.458;9.998;2023-04-15T04:45:54;32.63;;;20.52;;
16634;SDS011;8431;52.458;9.998;2023-04-15T04:48:21;29.95;;;19.80;;
16634;SDS011;8431;52.458;9.998;2023-04-15T04:50:49;31.83;;;20.55;;
16634;SDS011;8431;52.458;9.998;2023-04-15T04:53:17;33.80;;;20.20;;
16634;SDS011;8431;52.458;9.998;2023-04-15T04:55:44;31.20;;;20.67;;
16634;SDS011;8431;52.458;9.998;2023-04-15T04:58:11;33.47;;;21.60;;
16634;SDS011;8431;52.458;9.998;2023-04-15T05:00:38;30.65;;;20.08;;
16634;SDS011;8431;52.458;9.998;2023-04-15T05:03:06;31.95;;;20.08;;
16634;SDS011;8431;52.458;9.998;2023-04-15T05:05:33;31.35;;;19.63;;
16634;SDS011;8431;52.458;9.998;2023-04-15T05:08:02;38.75;;;21.85;;
16634;SDS011;8431;52.458;9.998;2023-04-15T05:10:29;33.10;;;20.70;;
16634;SDS011;8431;52.458;9.998;2023-04-15T05:12:56;32.42;;;20.35;;
16634;SDS011;8431;52.458;9.998;2023-04-15T05:15:24;32.75;;;19.83;;
16634;SDS011;8431;52.458;9.998;2023-04-15T05:17:51;34.33;;;20.20;;
16634;SDS011;8431;52.458;9.998;2023-04-15T05:20:18;30.42;;;19.45;;
16634;SDS011;8431;52.458;9.998;2023-04-15T05:22:45;30.05;;;19.35;;
16634;SDS011;8431;52.458;9.998;2023-04-15T05:25:13;29.30;;;18.27;;
16634;SDS011;8431;52.458;9.998;2023-04-15T05:27:41;27.63;;;17.50;;
16634;SDS011;8431;52.458;9.998;2023-04-15T05:30:08;31.02;;;18.98;;
16634;SDS011;8431;52.458;9.998;2023-04-15T05:32:35;27.70;;;17.25;;
16634;SDS011;8431;52.458;9.998;2023-04-15T05:35:02;27.48;;;17.75;;
16634;SDS011;8431;52.458;9.998;2023-04-15T05:37:30;28.08;;;17.17;;
16634;SDS011;8431;52.458;9.998;2023-04-15T05:39:58;26.92;;;17.40;;
16634;SDS011;8431;52.458;9.998;2023-04-15T05:42:26;26.25;;;16.20;;
16634;SDS011;8431;52.458;9.998;2023-04-15T05:44:53;27.23;;;16.58;;
16634;SDS011;8431;52.458;9.998;2023-04-15T05:47:20;25.33;;;16.00;;
16634;SDS011;8431;52.458;9.998;2023-04-15T05:49:47;25.48;;;15.07;;
16634;SDS011;8431;52.458;9.998;2023-04-15T05:52:14;20.73;;;14.50;;
16634;SDS011;8431;52.458;9.998;2023-04-15T05:54:41;24.48;;;15.50;;
16634;SDS011;8431;52.458;9.998;2023-04-15T05:57:08;23.63;;;14.80;;
16634;SDS011;8431;52.458;9.998;2023-04-15T05:59:37;19.35;;;14.07;;
16634;SDS011;8431;52.458;9.998;2023-04-15T06:02:04;19.70;;;13.48;;
16634;SDS011;8431;52.458;9.998;2023-04-15T06:04:31;21.25;;;15.00;;
16634;SDS011;8431;52.458;9.998;2023-04-15T06:06:58;20.23;;;13.95;;
16634;SDS011;8431;52.458;9.998;2023-04-15T06:09:25;21.27;;;13.07;;
16634;SDS011;8431;52.458;9.998;2023-04-15T06:11:53;18.23;;;12.63;;
16634;SDS011;8431;52.458;9.998;2023-04-15T06:14:20;16.92;;;12.32;;
16634;SDS011;8431;52.458;9.998;2023-04-15T06:16:48;17.55;;;11.75;;
16634;SDS011;8431;52.458;9.998;2023-04-15T06:19:16;18.85;;;12.13;;
16634;SDS011;8431;52.458;9.998;2023-04-15T06:24:17;19.05;;;12.55;;
16634;SDS011;8431;52.458;9.998;2023-04-15T06:26:44;19.10;;;12.05;;
16634;SDS011;8431;52.458;9.998;2023-04-15T06:29:11;18.77;;;12.50;;
16634;SDS011;8431;52.458;9.998;2023-04-15T06:31:38;19.27;;;11.95;;
16634;SDS011;8431;52.458;9.998;2023-04-15T06:34:06;22.13;;;12.95;;
16634;SDS011;8431;52.458;9.998;2023-04-15T06:36:35;16.95;;;11.90;;
16634;SDS011;8431;52.458;9.998;2023-04-15T06:39:02;15.32;;;11.13;;
16634;SDS011;8431;52.458;9.998;2023-04-15T06:41:29;16.33;;;11.13;;
16634;SDS011;8431;52.458;9.998;2023-04-15T06:43:56;19.17;;;12.10;;
16634;SDS011;8431;52.458;9.998;2023-04-15T06:46:23;15.30;;;10.60;;
16634;SDS011;8431;52.458;9.998;2023-04-15T06:48:50;15.88;;;10.98;;
16634;SDS011;8431;52.458;9.998;2023-04-15T06:51:19;15.35;;;10.05;;
16634;SDS011;8431;52.458;9.998;2023-04-15T06:53:46;15.15;;;10.13;;
16634;SDS011;8431;52.458;9.998;2023-04-15T06:56:13;13.85;;;9.50;;
16634;SDS011;8431;52.458;9.998;2023-04-15T06:58:40;15.00;;;10.63;;
16634;SDS011;8431;52.458;9.998;2023-04-15T07:01:08;15.27;;;9.65;;
16634;SDS011;8431;52.458;9.998;2023-04-15T07:03:35;13.70;;;9.40;;
16634;SDS011;8431;52.458;9.998;2023-04-15T07:06:02;12.73;;;9.25;;
16634;SDS011;8431;52.458;9.998;2023-04-15T07:08:32;16.02;;;9.43;;
16634;SDS011;8431;52.458;9.998;2023-04-15T07:10:59;12.35;;;8.40;;
16634;SDS011;8431;52.458;9.998;2023-04-15T07:13:26;13.95;;;8.55;;
16634;SDS011;8431;52.458;9.998;2023-04-15T07:15:55;13.73;;;8.70;;
16634;SDS011;8431;52.458;9.998;2023-04-15T07:18:22;11.93;;;8.57;;
16634;SDS011;8431;52.458;9.998;2023-04-15T07:20:49;11.38;;;7.93;;
16634;SDS011;8431;52.458;9.998;2023-04-15T07:23:16;10.52;;;7.30;;
16634;SDS011;8431;52.458;9.998;2023-04-15T07:25:45;9.02;;;6.40;;
16634;SDS011;8431;52.458;9.998;2023-04-15T07:28:12;9.88;;;7.20;;
16634;SDS011;8431;52.458;9.998;2023-04-15T07:30:39;8.93;;;6.32;;
16634;SDS011;8431;52.458;9.998;2023-04-15T07:33:07;10.32;;;6.53;;
16634;SDS011;8431;52.458;9.998;2023-04-15T07:35:34;11.57;;;6.32;;
16634;SDS011;8431;52.458;9.998;2023-04-15T07:38:03;8.15;;;5.63;;
16634;SDS011;8431;52.458;9.998;2023-04-15T07:40:30;7.90;;;6.45;;
16634;SDS011;8431;52.458;9.998;2023-04-15T07:42:59;6.68;;;5.55;;
16634;SDS011;8431;52.458;9.998;2023-04-15T07:45:26;7.53;;;5.43;;
16634;SDS011;8431;52.458;9.998;2023-04-15T07:47:53;6.18;;;5.22;;
16634;SDS011;8431;52.458;9.998;2023-04-15T07:50:21;7.32;;;5.10;;
16634;SDS011;8431;52.458;9.998;2023-04-15T07:52:48;8.27;;;5.45;;
16634;SDS011;8431;52.458;9.998;2023-04-15T07:55:16;6.75;;;5.13;;
16634;SDS011;8431;52.458;9.998;2023-04-15T07:57:47;6.65;;;4.60;;
16634;SDS011;8431;52.458;9.998;2023-04-15T08:00:16;5.13;;;4.63;;
16634;SDS011;8431;52.458;9.998;2023-04-15T08:02:46;6.28;;;4.82;;
16634;SDS011;8431;52.458;9.998;2023-04-15T08:05:14;5.40;;;4.65;;
16634;SDS011;8431;52.458;9.998;2023-04-15T08:07:41;6.50;;;4.40;;
16634;SDS011;8431;52.458;9.998;2023-04-15T08:10:08;6.38;;;4.78;;
16634;SDS011;8431;52.458;9.998;2023-04-15T08:12:36;5.22;;;4.50;;
16634;SDS011;8431;52.458;9.998;2023-04-15T08:15:03;5.55;;;4.65;;
16634;SDS011;8431;52.458;9.998;2023-04-15T08:17:33;5.13;;;4.63;;
16634;SDS011;8431;52.458;9.998;2023-04-15T08:20:00;6.15;;;4.50;;
16634;SDS011;8431;52.458;9.998;2023-04-15T08:22:29;5.55;;;4.78;;
16634;SDS011;8431;52.458;9.998;2023-04-15T08:24:56;4.38;;;3.92;;
16634;SDS011;8431;52.458;9.998;2023-04-15T08:27:23;6.90;;;4.53;;
16634;SDS011;8431;52.458;9.998;2023-04-15T08:29:51;8.00;;;5.05;;
16634;SDS011;8431;52.458;9.998;2023-04-15T08:32:18;5.38;;;4.78;;
16634;SDS011;8431;52.458;9.998;2023-04-15T08:34:46;6.50;;;5.10;;
16634;SDS011;8431;52.458;9.998;2023-04-15T08:37:13;8.05;;;5.80;;
16634;SDS011;8431;52.458;9.998;2023-04-15T08:39:51;6.63;;;5.22;;
16634;SDS011;8431;52.458;9.998;2023-04-15T08:42:18;9.07;;;5.75;;
16634;SDS011;8431;52.458;9.998;2023-04-15T08:44:52;7.40;;;5.70;;
16634;SDS011;8431;52.458;9.998;2023-04-15T08:47:20;8.02;;;6.18;;
16634;SDS011;8431;52.458;9.998;2023-04-15T08:49:53;9.00;;;6.55;;
16634;SDS011;8431;52.458;9.998;2023-04-15T08:52:23;10.63;;;6.95;;
16634;SDS011;8431;52.458;9.998;2023-04-15T08:54:51;12.85;;;7.45;;
16634;SDS011;8431;52.458;9.998;2023-04-15T08:57:23;10.35;;;7.95;;
16634;SDS011;8431;52.458;9.998;2023-04-15T08:59:51;11.73;;;8.18;;
16634;SDS011;8431;52.458;9.998;2023-04-15T09:02:21;12.43;;;8.80;;
16634;SDS011;8431;52.458;9.998;2023-04-15T09:04:49;11.77;;;8.73;;
16634;SDS011;8431;52.458;9.998;2023-04-15T09:07:18;12.70;;;8.30;;
16634;SDS011;8431;52.458;9.998;2023-04-15T09:09:45;16.45;;;9.30;;
16634;SDS011;8431;52.458;9.998;2023-04-15T09:12:15;17.05;;;9.65;;
16634;SDS011;8431;52.458;9.998;2023-04-15T09:14:44;14.55;;;10.20;;
16634;SDS011;8431;52.458;9.998;2023-04-15T09:17:12;16.85;;;10.35;;
16634;SDS011;8431;52.458;9.998;2023-04-15T09:19:43;15.80;;;10.55;;
16634;SDS011;8431;52.458;9.998;2023-04-15T09:22:10;17.27;;;10.57;;
16634;SDS011;8431;52.458;9.998;2023-04-15T09:24:40;15.77;;;9.90;;
16634;SDS011;8431;52.458;9.998;2023-04-15T09:27:07;19.05;;;11.48;;
16634;SDS011;8431;52.458;9.998;2023-04-15T09:29:35;20.58;;;11.93;;
16634;SDS011;8431;52.458;9.998;2023-04-15T09:32:09;21.35;;;12.57;;
16634;SDS011;8431;52.458;9.998;2023-04-15T09:34:37;24.25;;;13.15;;
16634;SDS011;8431;52.458;9.998;2023-04-15T09:37:11;19.15;;;11.82;;
16634;SDS011;8431;52.458;9.998;2023-04-15T09:39:46;20.05;;;13.43;;
16634;SDS011;8431;52.458;9.998;2023-04-15T09:42:15;21.55;;;14.23;;
16634;SDS011;8431;52.458;9.998;2023-04-15T09:44:48;22.92;;;14.77;;
16634;SDS011;8431;52.458;9.998;2023-04-15T09:50:26;31.83;;;16.10;;
16634;SDS011;8431;52.458;9.998;2023-04-15T09:52:56;26.60;;;16.20;;
16634;SDS011;8431;52.458;9.998;2023-04-15T09:55:28;28.08;;;16.63;;
16634;SDS011;8431;52.458;9.998;2023-04-15T09:57:59;34.20;;;18.42;;
16634;SDS011;8431;52.458;9.998;2023-04-15T10:00:27;28.65;;;16.23;;
16634;SDS011;8431;52.458;9.998;2023-04-15T10:02:56;35.50;;;19.33;;
16634;SDS011;8431;52.458;9.998;2023-04-15T10:05:23;31.00;;;18.35;;
16634;SDS011;8431;52.458;9.998;2023-04-15T10:07:52;33.15;;;18.80;;
16634;SDS011;8431;52.458;9.998;2023-04-15T10:10:23;36.20;;;19.55;;
16634;SDS011;8431;52.458;9.998;2023-04-15T10:13:06;37.28;;;20.02;;
16634;SDS011;8431;52.458;9.998;2023-04-15T10:15:35;35.08;;;19.77;;
16634;SDS011;8431;52.458;9.998;2023-04-15T10:18:02;36.47;;;20.38;;
16634;SDS011;8431;52.458;9.998;2023-04-15T10:20:35;38.40;;;20.45;;
16634;SDS011;8431;52.458;9.998;2023-04-15T10:23:03;46.03;;;21.92;;
16634;SDS011;8431;52.458;9.998;2023-04-15T10:25:30;39.08;;;22.13;;
16634;SDS011;8431;52.458;9.998;2023-04-15T10:28:02;38.40;;;20.92;;
16634;SDS011;8431;52.458;9.998;2023-04-15T10:30:31;38.45;;;21.08;;
16634;SDS011;8431;52.458;9.998;2023-04-15T10:32:59;37.72;;;21.65;;
16634;SDS011;8431;52.458;9.998;2023-04-15T10:35:27;43.95;;;23.05;;
16634;SDS011;8431;52.458;9.998;2023-04-15T10:37:55;38.55;;;23.23;;
16634;SDS011;8431;52.458;9.998;2023-04-15T10:40:23;36.67;;;21.50;;
16634;SDS011;8431;52.458;9.998;2023-04-15T10:42:52;40.50;;;22.98;;
16634;SDS011;8431;52.458;9.998;2023-04-15T10:45:20;37.33;;;23.77;;
16634;SDS011;8431;52.458;9.998;2023-04-15T10:47:53;38.88;;;24.38;;
16634;SDS011;8431;52.458;9.998;2023-04-15T10:50:21;33.75;;;22.75;;
16634;SDS011;8431;52.458;9.998;2023-04-15T10:52:50;35.70;;;23.63;;
16634;SDS011;8431;52.458;9.998;2023-04-15T10:55:19;38.83;;;22.67;;
16634;SDS011;8431;52.458;9.998;2023-04-15T10:57:50;35.22;;;23.08;;
16634;SDS011;8431;52.458;9.998;2023-04-15T11:00:18;33.17;;;22.33;;
16634;SDS011;8431;52.458;9.998;2023-04-15T11:02:51;38.60;;;24.33;;
16634;SDS011;8431;52.458;9.998;2023-04-15T11:05:21;37.05;;;23.52;;
16634;SDS011;8431;52.458;9.998;2023-04-15T11:08:08;34.78;;;23.23;;
16634;SDS011;8431;52.458;9.998;2023-04-15T11:13:19;41.72;;;25.55;;
16634;SDS011;8431;52.458;9.998;2023-04-15T11:15:49;40.78;;;25.83;;
16634;SDS011;8431;52.458;9.998;2023-04-15T11:18:18;40.35;;;25.75;;
16634;SDS011;8431;52.458;9.998;2023-04-15T11:20:46;41.95;;;26.50;;
16634;SDS011;8431;52.458;9.998;2023-04-15T11:23:19;42.78;;;26.13;;
16634;SDS011;8431;52.458;9.998;2023-04-15T11:25:53;40.05;;;26.98;;
16634;SDS011;8431;52.458;9.998;2023-04-15T11:28:23;43.53;;;27.13;;
16634;SDS011;8431;52.458;9.998;2023-04-15T11:30:51;40.22;;;26.77;;
16634;SDS011;8431;52.458;9.998;2023-04-15T11:33:21;42.95;;;27.65;;
16634;SDS011;8431;52.458;9.998;2023-04-15T11:35:49;40.42;;;27.35;;
16634;SDS011;8431;52.458;9.998;2023-04-15T11:38:17;42.47;;;26.98;;
16634;SDS011;8431;52.458;9.998;2023-04-15T11:40:44;44.45;;;28.05;;
16634;SDS011;8431;52.458;9.998;2023-04-15T11:43:12;41.25;;;27.25;;
16634;SDS011;8431;52.458;9.998;2023-04-15T11:45:47;40.80;;;28.17;;
16634;SDS011;8431;52.458;9.998;2023-04-15T11:48:17;46.00;;;29.05;;
16634;SDS011;8431;52.458;9.998;2023-04-15T11:53:35;42.35;;;27.40;;
16634;SDS011;8431;52.458;9.998;2023-04-15T11:56:04;47.65;;;29.70;;
16634;SDS011;8431;52.458;9.998;2023-04-15T11:58:33;45.30;;;30.00;;
16634;SDS011;8431;52.458;9.998;2023-04-15T12:01:01;44.33;;;29.80;;
16634;SDS011;8431;52.458;9.998;2023-04-15T12:03:29;48.03;;;31.33;;
16634;SDS011;8431;52.458;9.998;2023-04-15T12:06:04;52.85;;;30.75;;
16634;SDS011;8431;52.458;9.998;2023-04-15T12:11:38;44.13;;;29.20;;
16634;SDS011;8431;52.458;9.998;2023-04-15T12:14:11;49.83;;;31.50;;
16634;SDS011;8431;52.458;9.998;2023-04-15T12:16:41;51.65;;;31.33;;
16634;SDS011;8431;52.458;9.998;2023-04-15T12:19:10;47.63;;;30.00;;
16634;SDS011;8431;52.458;9.998;2023-04-15T12:21:41;54.78;;;33.00;;
16634;SDS011;8431;52.458;9.998;2023-04-15T12:24:14;55.35;;;32.97;;
16634;SDS011;8431;52.458;9.998;2023-04-15T12:26:45;52.97;;;32.95;;
16634;SDS011;8431;52.458;9.998;2023-04-15T12:29:14;51.97;;;31.65;;
16634;SDS011;8431;52.458;9.998;2023-04-15T12:31:46;51.55;;;33.17;;
16634;SDS011;8431;52.458;9.998;2023-04-15T12:34:15;50.63;;;32.25;;
16634;SDS011;8431;52.458;9.998;2023-04-15T12:36:45;46.67;;;30.35;;
16634;SDS011;8431;52.458;9.998;2023-04-15T12:39:12;44.22;;;30.25;;
16634;SDS011;8431;52.458;9.998;2023-04-15T12:41:40;45.70;;;28.27;;
16634;SDS011;8431;52.458;9.998;2023-04-15T12:44:07;44.67;;;29.17;;
16634;SDS011;8431;52.458;9.998;2023-04-15T12:46:34;39.75;;;27.98;;
16634;SDS011;8431;52.458;9.998;2023-04-15T12:49:01;36.85;;;26.40;;
16634;SDS011;8431;52.458;9.998;2023-04-15T12:51:28;36.40;;;26.67;;
16634;SDS011;8431;52.458;9.998;2023-04-15T12:53:57;39.05;;;25.52;;
16634;SDS011;8431;52.458;9.998;2023-04-15T12:56:24;33.70;;;23.73;;
16634;SDS011;8431;52.458;9.998;2023-04-15T12:58:51;34.17;;;24.55;;
16634;SDS011;8431;52.458;9.998;2023-04-15T13:01:18;32.60;;;24.27;;
16634;SDS011;8431;52.458;9.998;2023-04-15T13:03:46;29.55;;;21.98;;
16634;SDS011;8431;52.458;9.998;2023-04-15T13:06:14;29.95;;;22.15;;
16634;SDS011;8431;52.458;9.998;2023-04-15T13:08:42;30.50;;;21.80;;
16634;SDS011;8431;52.458;9.998;2023-04-15T13:11:10;29.42;;;21.52;;
16634;SDS011;8431;52.458;9.998;2023-04-15T13:13:37;32.30;;;20.90;;
16634;SDS011;8431;52.458;9.998;2023-04-15T13:16:05;26.40;;;21.48;;
16634;SDS011;8431;52.458;9.998;2023-04-15T13:18:32;23.60;;;20.00;;
16634;SDS011;8431;52.458;9.998;2023-04-15T13:20:59;26.98;;;20.10;;
16634;SDS011;8431;52.458;9.998;2023-04-15T13:23:27;23.73;;;19.73;;
16634;SDS011;8431;52.458;9.998;2023-04-15T13:25:54;27.00;;;21.17;;
16634;SDS011;8431;52.458;9.998;2023-04-15T13:28:22;25.08;;;20.63;;
16634;SDS011;8431;52.458;9.998;2023-04-15T13:30:49;22.38;;;18.70;;
16634;SDS011;8431;52.458;9.998;2023-04-15T13:33:16;24.08;;;20.23;;
16634;SDS011;8431;52.458;9.998;2023-04-15T13:35:44;23.85;;;19.33;;
16634;SDS011;8431;52.458;9.998;2023-04-15T13:38:11;26.30;;;20.67;;
16634;SDS011;8431;52.458;9.998;2023-04-15T13:40:38;21.77;;;19.17;;
16634;SDS011;8431;52.458;9.998;2023-04-15T13:43:05;23.60;;;18.98;;
16634;SDS011;8431;52.458;9.998;2023-04-15T13:45:33;22.65;;;19.88;;
16634;SDS011;8431;52.458;9.998;2023-04-15T13:48:00;22.77;;;20.08;;
16634;SDS011;8431;52.458;9.998;2023-04-15T13:50:29;24.52;;;18.85;;
16634;SDS011;8431;52.458;9.998;2023-04-15T13:52:56;21.73;;;18.52;;
16634;SDS011;8431;52.458;9.998;2023-04-15T13:55:22;23.42;;;19.27;;
16634;SDS011;8431;52.458;9.998;2023-04-15T13:57:49;22.85;;;18.92;;
16634;SDS011;8431;52.458;9.998;2023-04-15T14:00:17;23.88;;;19.42;;
16634;SDS011;8431;52.458;9.998;2023-04-15T14:02:45;24.33;;;18.67;;
16634;SDS011;8431;52.458;9.998;2023-04-15T14:05:13;24.48;;;19.08;;
16634;SDS011;8431;52.458;9.998;2023-04-15T14:07:40;20.50;;;17.88;;
16634;SDS011;8431;52.458;9.998;2023-04-15T14:10:07;21.27;;;18.83;;
16634;SDS011;8431;52.458;9.998;2023-04-15T14:12:34;21.45;;;17.38;;
16634;SDS011;8431;52.458;9.998;2023-04-15T14:15:01;20.05;;;17.90;;
16634;SDS011;8431;52.458;9.998;2023-04-15T14:17:29;19.08;;;17.08;;
16634;SDS011;8431;52.458;9.998;2023-04-15T14:19:57;20.83;;;17.17;;
16634;SDS011;8431;52.458;9.998;2023-04-15T14:22:24;21.15;;;17.10;;
16634;SDS011;8431;52.458;9.998;2023-04-15T14:24:51;20.90;;;17.70;;
16634;SDS011;8431;52.458;9.998;2023-04-15T14:27:19;17.60;;;15.55;;
16634;SDS011;8431;52.458;9.998;2023-04-15T14:29:46;17.45;;;15.73;;
16634;SDS011;8431;52.458;9.998;2023-04-15T14:32:14;17.33;;;15.18;;
16634;SDS011;8431;52.458;9.998;2023-04-15T14:34:41;18.13;;;16.30;;
16634;SDS011;8431;52.458;9.998;2023-04-15T14:37:09;17.30;;;15.50;;
16634;SDS011;8431;52.458;9.998;2023-04-15T14:39:36;17.30;;;15.10;;
16634;SDS011;8431;52.458;9.998;2023-04-15T14:42:03;17.30;;;15.23;;
16634;SDS011;8431;52.458;9.998;2023-04-15T14:44:30;16.88;;;15.18;;
16634;SDS011;8431;52.458;9.998;2023-04-15T14:46:57;18.67;;;15.73;;
16634;SDS011;8431;52.458;9.998;2023-04-15T14:49:24;17.83;;;16.02;;
16634;SDS011;8431;52.458;9.998;2023-04-15T14:51:53;16.35;;;14.65;;
16634;SDS011;8431;52.458;9.998;2023-04-15T14:54:21;16.92;;;15.32;;
16634;SDS011;8431;52.458;9.998;2023-04-15T14:56:48;16.75;;;14.55;;
16634;SDS011;8431;52.458;9.998;2023-04-15T14:59:15;16.25;;;14.50;;
16634;SDS011;8431;52.458;9.998;2023-04-15T15:01:42;16.35;;;14.70;;